Time;durP1;ratioP1;P1;durP2;ratioP2;P2;SDS_P1;SDS_P2;PMS_P1;PMS_P2;Temp;Humidity;BMP_temperature;BMP_pressure;BME280_temperature;BME280_humidity;BME280_pressure;Samples;Min_cycle;Max_cycle;Signal;HPM_P1;HPM_P2
2021/12/09 04:58:35;;;;;;;28.30;16.90;;;;;;;6.60;70.46;99608.81;5605929;31;80817;-57
2021/12/09 05:01:40;;;;;;;27.33;16.35;;;;;;;6.60;70.46;99608.81;5583663;31;33322;-58
2021/12/09 05:04:43;;;;;;;30.58;17.75;;;;;;;5.79;74.95;99618.53;5583756;32;33690;-58
2021/12/09 05:07:45;;;;;;;23.65;15.27;;;;;;;6.20;85.53;99613.19;5583627;32;33654;-58
2021/12/09 05:14:00;;;;;;;26.75;16.33;;;;;;;6.25;68.97;99623.03;5583537;32;33536;-58
2021/12/09 05:17:04;;;;;;;27.60;17.75;;;;;;;6.18;64.41;99617.19;5575648;31;33614;-58
2021/12/09 05:20:07;;;;;;;31.73;17.90;;;;;;;6.36;72.78;99624.59;5563562;32;33538;-58
2021/12/09 05:23:09;;;;;;;29.45;17.33;;;;;;;6.09;71.45;99616.94;5563845;32;34207;-58
2021/12/09 05:26:14;;;;;;;27.13;17.20;;;;;;;6.26;64.64;99629.97;5563624;32;34267;-58
2021/12/09 05:29:27;;;;;;;28.95;17.15;;;;;;;6.03;72.56;99626.78;5564150;32;33701;-58
2021/12/09 05:32:31;;;;;;;27.45;17.85;;;;;;;6.04;64.01;99636.38;5562988;32;33339;-58
2021/12/09 05:35:33;;;;;;;27.77;17.37;;;;;;;6.14;65.82;99640.88;5563669;32;34193;-57
2021/12/09 05:38:37;;;;;;;26.42;17.58;;;;;;;6.31;71.32;99625.41;5563296;32;33779;-57
2021/12/09 05:41:41;;;;;;;29.45;17.80;;;;;;;6.03;63.95;99615.38;5563652;32;33689;-57
2021/12/09 05:44:44;;;;;;;30.45;18.77;;;;;;;6.07;73.72;99622.53;5563733;32;33611;-58
2021/12/09 05:47:46;;;;;;;28.38;18.35;;;;;;;5.99;66.85;99631.03;5563649;32;33602;-58
2021/12/09 05:50:48;;;;;;;28.55;18.00;;;;;;;6.27;83.92;99607.59;5571513;31;33726;-58
2021/12/09 05:53:52;;;;;;;29.83;18.95;;;;;;;6.42;71.07;99601.41;5583128;32;33580;-58
2021/12/09 05:56:54;;;;;;;28.20;19.45;;;;;;;6.59;81.41;99608.03;5579928;31;33745;-57
2021/12/09 05:59:56;;;;;;;35.30;20.77;;;;;;;6.57;71.84;99591.50;5580874;32;33607;-57
2021/12/09 06:02:59;;;;;;;33.38;21.08;;;;;;;6.40;71.65;99568.97;5580788;31;34377;-58
2021/12/09 06:06:02;;;;;;;33.42;21.65;;;;;;;5.89;65.39;99561.84;5582301;32;34845;-57
2021/12/09 06:09:06;;;;;;;33.40;21.75;;;;;;;5.83;69.45;99549.66;5573591;32;33719;-57
2021/12/09 06:12:09;;;;;;;35.63;22.52;;;;;;;6.00;67.15;99558.16;5568772;32;34352;-57
2021/12/09 06:15:12;;;;;;;35.00;20.85;;;;;;;5.77;80.46;99564.03;5559325;32;33671;-57
2021/12/09 06:18:14;;;;;;;37.45;21.62;;;;;;;5.87;68.50;99571.97;5560959;31;34362;-58
2021/12/09 06:21:18;;;;;;;36.70;22.30;;;;;;;5.62;71.83;99570.12;5563803;32;34218;-58
2021/12/09 06:24:21;;;;;;;35.03;21.50;;;;;;;5.79;73.79;99570.66;5569445;32;34317;-57
2021/12/09 06:27:23;;;;;;;36.92;20.05;;;;;;;5.95;85.41;99566.13;5569303;32;33900;-58
2021/12/09 06:30:26;;;;;;;36.78;20.42;;;;;;;6.10;72.88;99558.13;5569558;32;34310;-58
2021/12/09 06:33:28;;;;;;;30.98;19.98;;;;;;;5.96;71.27;99548.31;5569220;32;33784;-57
2021/12/09 06:36:31;;;;;;;32.55;21.23;;;;;;;5.96;72.27;99545.66;5558661;32;33743;-57
2021/12/09 06:39:33;;;;;;;32.15;19.85;;;;;;;6.17;79.71;99557.06;5568705;32;33725;-57
2021/12/09 06:42:36;;;;;;;33.90;18.55;;;;;;;6.08;69.83;99551.47;5563972;32;33602;-58
2021/12/09 06:45:40;;;;;;;30.77;20.10;;;;;;;5.87;66.03;99566.66;5549875;32;33609;-58
2021/12/09 06:48:43;;;;;;;30.30;18.25;;;;;;;5.83;69.89;99562.97;5568835;32;33863;-57
2021/12/09 06:51:48;;;;;;;32.20;19.30;;;;;;;5.67;64.78;99553.41;5568888;32;33850;-57
2021/12/09 06:54:50;;;;;;;34.42;20.10;;;;;;;5.55;78.33;99557.13;5568808;32;33667;-58
2021/12/09 06:57:52;;;;;;;29.23;18.33;;;;;;;5.57;66.88;99551.53;5566858;32;33712;-57
2021/12/09 07:00:57;;;;;;;30.50;19.20;;;;;;;5.62;68.64;99556.84;5568602;32;33708;-57
2021/12/09 07:03:59;;;;;;;28.08;17.55;;;;;;;5.48;80.60;99569.09;5567738;32;33638;-58
2021/12/09 07:07:01;;;;;;;31.27;18.35;;;;;;;5.51;72.30;99568.56;5569039;32;33638;-58
2021/12/09 07:10:07;;;;;;;30.77;18.98;;;;;;;5.84;81.88;99573.31;5568691;32;33201;-58
2021/12/09 07:13:10;;;;;;;32.05;19.00;;;;;;;5.78;74.76;99576.25;5566226;32;33670;-58
2021/12/09 07:16:12;;;;;;;27.45;17.50;;;;;;;5.69;74.10;99583.94;5568208;32;33840;-57
2021/12/09 07:19:15;;;;;;;29.98;18.85;;;;;;;5.57;71.20;99597.53;5568182;32;34344;-58
2021/12/09 07:22:17;;;;;;;30.58;18.90;;;;;;;5.38;73.81;99599.13;5567505;32;33677;-58
2021/12/09 07:25:23;;;;;;;31.67;18.42;;;;;;;5.71;70.15;99602.31;5568567;32;33760;-57
2021/12/09 07:28:25;;;;;;;30.37;18.90;;;;;;;5.98;74.73;99602.06;5548842;32;32281;-57
2021/12/09 07:31:28;;;;;;;28.08;17.08;;;;;;;5.78;64.34;99589.53;5563176;32;33568;-58
2021/12/09 07:34:30;;;;;;;28.35;17.50;;;;;;;5.35;67.29;99575.72;5567471;32;33760;-58
2021/12/09 07:37:36;;;;;;;31.48;16.50;;;;;;;5.14;67.42;99572.25;5567973;32;34282;-57
2021/12/09 07:40:40;;;;;;;31.37;16.63;;;;;;;5.48;77.75;99558.44;5568734;32;33384;-57
2021/12/09 07:43:43;;;;;;;31.12;17.58;;;;;;;5.33;68.05;99560.06;5568308;32;34500;-58
2021/12/09 07:46:45;;;;;;;29.42;17.70;;;;;;;5.02;70.56;99561.88;5563407;32;33269;-57
2021/12/09 07:49:48;;;;;;;28.35;17.52;;;;;;;5.13;69.75;99555.53;5564040;32;32280;-57
2021/12/09 07:52:51;;;;;;;31.37;18.25;;;;;;;5.32;76.56;99555.00;5567903;32;34497;-57
2021/12/09 07:55:55;;;;;;;27.50;17.60;;;;;;;5.29;72.21;99555.53;5548708;32;33704;-57
2021/12/09 07:58:57;;;;;;;30.73;17.77;;;;;;;5.46;71.02;99545.41;5563702;32;34299;-58
2021/12/09 08:02:00;;;;;;;28.55;17.65;;;;;;;5.61;74.18;99548.06;5566471;32;33588;-58
2021/12/09 08:05:03;;;;;;;27.80;16.65;;;;;;;5.53;69.99;99542.47;5568367;32;33730;-58
2021/12/09 08:08:07;;;;;;;26.27;16.62;;;;;;;5.46;72.99;99540.09;5567161;32;33372;-57
2021/12/09 08:11:10;;;;;;;27.48;17.83;;;;;;;5.78;72.08;99536.34;5558980;32;33663;-58
2021/12/09 08:14:15;;;;;;;27.27;16.42;;;;;;;5.93;80.42;99525.72;5567861;32;33754;-58
2021/12/09 08:20:42;;;;;;;27.13;17.42;;;;;;;5.83;77.71;99531.84;5567987;32;34580;-57
2021/12/09 08:23:44;;;;;;;27.15;16.45;;;;;;;5.73;78.44;99529.19;5567620;32;34412;-58
2021/12/09 08:26:46;;;;;;;26.23;15.80;;;;;;;5.80;75.70;99524.38;5567704;32;34180;-57
2021/12/09 08:29:49;;;;;;;30.50;18.05;;;;;;;5.90;74.60;99534.22;5568140;32;34307;-58
2021/12/09 08:32:54;;;;;;;30.27;17.27;;;;;;;5.49;68.15;99528.94;5567518;32;33713;-58
2021/12/09 08:35:57;;;;;;;27.58;17.23;;;;;;;6.02;83.58;99529.41;5567410;32;33860;-58
2021/12/09 08:38:59;;;;;;;26.37;17.48;;;;;;;5.92;68.18;99517.97;5568319;32;33632;-58
2021/12/09 08:42:02;;;;;;;27.52;15.98;;;;;;;5.92;69.12;99517.97;5567419;32;33582;-58
2021/12/09 08:45:08;;;;;;;27.87;16.40;;;;;;;6.06;72.63;99509.19;5567456;32;33285;-58
2021/12/09 08:48:12;;;;;;;27.75;17.05;;;;;;;5.94;76.97;99507.91;5563223;32;34365;-58
2021/12/09 08:51:15;;;;;;;29.33;16.17;;;;;;;5.93;76.67;99509.75;5548421;32;33784;-57
2021/12/09 08:54:18;;;;;;;25.75;15.88;;;;;;;5.95;75.96;99520.91;5558411;32;34047;-57
2021/12/09 08:57:22;;;;;;;26.33;16.92;;;;;;;5.83;67.00;99515.06;5567459;32;33979;-58
2021/12/09 09:00:26;;;;;;;27.55;17.23;;;;;;;5.69;78.81;99506.84;5567435;32;33577;-58
2021/12/09 09:03:31;;;;;;;28.73;17.45;;;;;;;5.79;68.79;99506.81;5565710;32;34705;-58
2021/12/09 09:06:34;;;;;;;26.40;16.77;;;;;;;6.09;70.00;99503.31;5567940;32;33680;-57
2021/12/09 09:09:38;;;;;;;26.15;16.48;;;;;;;6.11;72.88;99514.47;5567329;32;33589;-58
2021/12/09 09:12:40;;;;;;;29.12;17.08;;;;;;;6.14;72.79;99515.00;5561740;32;33552;-57
2021/12/09 09:15:48;;;;;;;26.48;16.23;;;;;;;6.29;78.11;99512.28;5562005;32;33615;-57
2021/12/09 09:18:53;;;;;;;28.38;17.15;;;;;;;6.04;75.95;99515.84;5555877;32;33863;-58
2021/12/09 09:21:55;;;;;;;28.77;16.37;;;;;;;6.07;72.47;99520.63;5565293;32;33617;-58
2021/12/09 09:25:08;;;;;;;26.85;16.75;;;;;;;6.25;70.75;99517.34;5562654;32;33635;-57
2021/12/09 09:28:11;;;;;;;28.83;16.90;;;;;;;6.00;69.71;99536.09;5561125;32;33215;-57
2021/12/09 09:31:14;;;;;;;27.27;16.62;;;;;;;6.12;70.84;99529.41;5561657;32;34364;-57
2021/12/09 09:34:16;;;;;;;27.95;17.37;;;;;;;5.98;78.37;99515.06;5554899;32;33676;-58
2021/12/09 09:37:21;;;;;;;27.25;18.50;;;;;;;6.07;76.70;99508.13;5548817;32;34476;-57
2021/12/09 09:40:38;;;;;;;26.90;16.45;;;;;;;6.23;78.58;99489.44;5566365;32;33737;-58
2021/12/09 09:46:48;;;;;;;25.25;16.73;;;;;;;6.49;73.35;99455.47;5557709;32;33651;-58
2021/12/09 09:49:52;;;;;;;29.58;16.73;;;;;;;6.39;76.76;99450.22;5558050;32;34390;-58
2021/12/09 09:52:54;;;;;;;27.95;17.45;;;;;;;6.22;70.23;99442.59;5550003;32;34685;-58
2021/12/09 09:55:57;;;;;;;29.58;18.20;;;;;;;6.10;74.37;99446.38;5555518;32;34415;-57
2021/12/09 09:59:04;;;;;;;23.75;15.77;;;;;;;5.78;67.34;99449.38;5558850;32;33599;-58
2021/12/09 10:02:07;;;;;;;25.33;16.92;;;;;;;6.17;78.95;99434.63;5568979;32;33117;-58
2021/12/09 10:05:11;;;;;;;26.70;16.52;;;;;;;6.22;73.48;99432.72;5569022;32;33713;-58
2021/12/09 10:08:16;;;;;;;25.25;15.68;;;;;;;6.37;74.02;99423.88;5569316;32;34001;-57
2021/12/09 10:11:18;;;;;;;27.55;17.60;;;;;;;6.44;72.56;99421.69;5566384;32;33674;-58
2021/12/09 10:14:26;;;;;;;28.62;17.58;;;;;;;6.50;72.99;99417.94;5568619;32;34374;-57
2021/12/09 10:17:29;;;;;;;25.90;16.52;;;;;;;6.64;72.22;99425.31;5569047;32;34046;-58
2021/12/09 10:20:54;;;;;;;30.12;17.02;;;;;;;6.49;69.96;99412.88;5558937;32;34455;-58
2021/12/09 10:23:56;;;;;;;26.50;17.42;;;;;;;6.22;72.67;99413.31;5557329;32;33596;-57
2021/12/09 10:26:59;;;;;;;28.15;17.00;;;;;;;6.34;71.67;99409.25;5568705;32;33584;-58
2021/12/09 10:30:08;;;;;;;26.75;17.12;;;;;;;6.10;71.90;99409.13;5564965;32;33735;-58
2021/12/09 10:33:12;;;;;;;27.60;16.75;;;;;;;6.21;73.91;99385.13;5567582;32;33917;-57
2021/12/09 10:36:43;;;;;;;30.08;16.80;;;;;;;6.39;77.88;99388.97;5562910;32;33728;-57
2021/12/09 10:39:48;;;;;;;27.15;16.87;;;;;;;6.31;80.32;99404.47;5568821;32;33647;-58
2021/12/09 10:42:57;;;;;;;27.25;17.20;;;;;;;6.46;69.17;99416.13;5567636;32;33711;-58
2021/12/09 10:46:01;;;;;;;27.77;17.12;;;;;;;6.51;78.70;99411.53;5568858;32;33587;-57
2021/12/09 10:49:12;;;;;;;28.60;18.05;;;;;;;6.47;68.93;99413.16;5567504;32;34367;-58
2021/12/09 10:52:35;;;;;;;26.83;17.23;;;;;;;6.44;70.05;99411.06;5568684;32;34262;-57
2021/12/09 10:55:37;;;;;;;29.75;17.73;;;;;;;6.58;76.33;99412.00;5549445;32;33353;-58
2021/12/09 10:58:42;;;;;;;27.67;17.00;;;;;;;6.37;69.95;99401.78;5551783;32;34022;-58
2021/12/09 11:02:04;;;;;;;27.42;16.60;;;;;;;6.41;71.34;99394.84;5561349;32;33751;-58
2021/12/09 11:05:07;;;;;;;27.73;17.17;;;;;;;6.74;73.11;99385.28;5568323;32;34263;-58
2021/12/09 11:08:20;;;;;;;27.30;16.62;;;;;;;6.64;69.37;99380.03;5562813;32;33715;-58
2021/12/09 11:11:28;;;;;;;24.60;16.00;;;;;;;6.45;69.59;99391.34;5556161;32;33743;-58
2021/12/09 11:14:30;;;;;;;31.70;17.17;;;;;;;6.74;80.92;99402.03;5566779;32;33247;-57
2021/12/09 11:17:41;;;;;;;27.62;17.83;;;;;;;6.63;68.96;99389.09;5559847;32;33850;-57
2021/12/09 11:20:44;;;;;;;26.48;16.75;;;;;;;6.68;71.01;99373.06;5560994;32;33171;-57
2021/12/09 11:23:57;;;;;;;30.05;17.70;;;;;;;6.46;67.35;99378.84;5554315;32;33629;-58
2021/12/09 11:27:03;;;;;;;27.77;16.80;;;;;;;6.34;71.66;99371.19;5562540;32;33726;-58
2021/12/09 11:30:10;;;;;;;23.77;16.08;;;;;;;6.68;80.29;99354.44;5564072;32;33714;-58
2021/12/09 11:33:32;;;;;;;28.62;17.55;;;;;;;6.59;82.93;99356.91;5555328;32;33626;-57
2021/12/09 11:36:54;;;;;;;26.75;17.60;;;;;;;6.26;69.24;99356.59;5564329;32;33768;-58
2021/12/09 11:40:28;;;;;;;28.30;16.30;;;;;;;6.56;82.19;99354.81;5559483;32;33860;-58
2021/12/09 11:43:31;;;;;;;28.87;18.02;;;;;;;6.51;68.35;99344.19;5560638;32;33747;-58
2021/12/09 11:46:33;;;;;;;26.55;16.50;;;;;;;6.66;74.74;99351.25;5557285;32;34465;-57
2021/12/09 11:49:36;;;;;;;28.50;17.55;;;;;;;6.62;70.30;99347.53;5561435;32;33805;-58
2021/12/09 11:52:40;;;;;;;30.23;17.25;;;;;;;6.66;73.65;99348.59;5556312;32;33743;-57
2021/12/09 11:56:08;;;;;;;29.95;18.75;;;;;;;6.62;73.67;99350.22;5566292;32;33741;-57
2021/12/09 11:59:41;;;;;;;28.00;18.12;;;;;;;6.49;76.29;99341.81;5561079;32;34641;-57
2021/12/09 12:13:10;;;;;;;31.50;17.20;;;;;;;6.34;72.89;99321.41;5551441;32;33940;-58
2021/12/09 12:19:52;;;;;;;27.92;17.10;;;;;;;6.37;79.96;99300.63;5566894;32;33656;-57
2021/12/09 12:23:14;;;;;;;26.92;18.48;;;;;;;6.27;75.09;99299.63;5567457;32;33642;-57
2021/12/09 12:33:11;;;;;;;28.20;18.20;;;;;;;6.94;81.98;99307.03;5562468;32;33675;-57
2021/12/09 12:36:28;;;;;;;29.92;18.33;;;;;;;6.83;74.17;99309.03;5558678;32;33688;-57
2021/12/09 12:42:59;;;;;;;29.08;18.37;;;;;;;6.66;81.52;99306.78;5565996;32;33624;-57
2021/12/09 12:46:15;;;;;;;29.98;18.83;;;;;;;6.31;79.98;99299.87;5567474;32;34415;-58
2021/12/09 12:49:33;;;;;;;;;;;;;;;6.68;85.43;99315.25;5560849;32;34346;-57
2021/12/09 12:52:37;;;;;;;29.00;17.65;;;;;;;6.72;81.28;99318.97;5554232;32;34635;-57
2021/12/09 12:56:01;;;;;;;30.23;18.12;;;;;;;6.82;82.25;99323.41;5548292;32;33419;-58
2021/12/09 12:59:08;;;;;;;27.30;18.15;;;;;;;6.52;82.21;99333.25;5548071;32;33602;-57
2021/12/09 13:09:09;;;;;;;29.87;18.65;;;;;;;6.54;87.64;99336.44;5544837;31;33832;-58
2021/12/09 13:12:40;;;;;;;29.52;18.25;;;;;;;6.78;91.17;99333.81;5547537;32;34435;-57
2021/12/09 13:19:40;;;;;;;27.33;17.80;;;;;;;6.62;81.63;99331.56;5558619;32;33730;-57
2021/12/09 13:22:43;;;;;;;33.20;19.17;;;;;;;7.01;83.91;99326.16;5550246;32;33858;-57
2021/12/09 13:26:29;;;;;;;34.45;19.08;;;;;;;6.75;70.00;99313.06;5565396;32;33589;-58
2021/12/09 13:29:47;;;;;;;;;;;;;;;6.29;72.33;99307.31;5550876;32;33673;-58
2021/12/09 13:39:31;;;;;;;33.78;19.40;;;;;;;6.88;78.41;99305.50;5550451;32;34315;-57
2021/12/09 13:46:10;;;;;;;32.78;20.05;;;;;;;6.57;80.43;99303.91;5559846;32;33930;-58
2021/12/09 13:55:43;;;;;;;33.67;20.80;;;;;;;6.35;73.29;99292.91;5558391;32;33708;-58
2021/12/09 13:58:47;;;;;;;31.90;19.70;;;;;;;6.52;80.44;99303.97;5568691;32;33780;-57
2021/12/09 14:01:51;;;;;;;29.73;19.40;;;;;;;6.28;83.03;99292.44;5563352;32;33239;-57
2021/12/09 14:04:56;;;;;;;33.30;21.27;;;;;;;6.70;85.59;99291.03;5570011;32;33759;-58
2021/12/09 14:08:02;;;;;;;31.48;21.25;;;;;;;6.67;81.10;99288.94;5569746;32;33731;-58
2021/12/09 14:11:24;;;;;;;;;;;;;;;6.59;71.53;99280.47;5570103;32;33651;-57
2021/12/09 14:14:37;;;;;;;32.88;19.40;;;;;;;6.00;78.84;99268.16;5559773;32;34177;-57
2021/12/09 14:17:42;;;;;;;31.98;19.92;;;;;;;6.57;82.95;99266.63;5561992;32;33778;-57
2021/12/09 14:20:46;;;;;;;35.30;21.12;;;;;;;5.73;72.58;99259.78;5555205;32;34330;-58
2021/12/09 14:23:49;;;;;;;32.40;21.17;;;;;;;6.63;92.16;99264.72;5555567;32;33291;-58
2021/12/09 14:26:54;;;;;;;37.05;19.62;;;;;;;6.52;71.86;99260.56;5560638;32;34144;-58
2021/12/09 14:29:58;;;;;;;32.85;20.02;;;;;;;6.18;73.11;99265.91;5568793;32;34400;-58
2021/12/09 14:33:00;;;;;;;29.25;19.45;;;;;;;5.71;75.02;99262.72;5560063;32;33740;-58
2021/12/09 14:36:08;;;;;;;30.12;20.12;;;;;;;6.53;89.55;99278.94;5559398;32;33784;-57
2021/12/09 14:39:16;;;;;;;28.45;19.33;;;;;;;6.46;73.18;99288.31;5559182;32;33601;-57
2021/12/09 14:42:20;;;;;;;30.25;19.67;;;;;;;6.16;80.99;99281.34;5557069;32;34088;-58
2021/12/09 14:45:33;;;;;;;28.65;19.52;;;;;;;6.08;73.97;99275.56;5554141;32;34334;-58
2021/12/09 14:48:43;;;;;;;31.15;20.20;;;;;;;5.86;77.55;99265.31;5561284;32;33795;-57
2021/12/09 14:51:47;;;;;;;28.90;19.65;;;;;;;6.06;73.54;99280.38;5557949;32;33592;-58
2021/12/09 14:54:49;;;;;;;26.85;18.70;;;;;;;6.55;87.34;99281.31;5556329;32;33911;-58
2021/12/09 14:58:04;;;;;;;25.42;18.17;;;;;;;6.56;88.12;99274.91;5562676;32;33713;-58
2021/12/09 15:01:18;;;;;;;28.52;18.85;;;;;;;6.28;80.02;99273.81;5562337;32;34484;-58
2021/12/09 15:04:34;;;;;;;28.62;19.00;;;;;;;6.23;74.37;99272.00;5559208;32;33096;-58
2021/12/09 15:07:50;;;;;;;30.52;18.90;;;;;;;6.30;71.81;99284.97;5555226;32;33634;-58
2021/12/09 15:10:57;;;;;;;28.08;19.40;;;;;;;6.22;83.33;99274.91;5561800;32;33768;-58
2021/12/09 15:13:59;;;;;;;32.90;20.10;;;;;;;6.06;74.43;99266.25;5562863;32;33280;-57
2021/12/09 15:17:05;;;;;;;29.63;19.67;;;;;;;5.95;71.69;99280.69;5556179;32;34187;-57
2021/12/09 15:20:12;;;;;;;27.33;19.17;;;;;;;5.59;73.90;99283.53;5557730;32;34113;-57
2021/12/09 15:23:30;;;;;;;26.35;18.33;;;;;;;6.02;88.55;99284.63;5555142;32;33781;-58
2021/12/09 15:26:36;;;;;;;31.10;20.20;;;;;;;6.09;92.50;99279.00;5559736;32;33210;-57
2021/12/09 15:29:47;;;;;;;28.33;20.12;;;;;;;6.20;86.66;99280.53;5558152;32;33802;-58
2021/12/09 15:32:58;;;;;;;27.77;19.00;;;;;;;5.94;73.88;99277.25;5553986;32;34530;-57
2021/12/09 15:36:22;;;;;;;30.40;18.20;;;;;;;5.63;74.85;99285.37;5559489;32;33667;-57
2021/12/09 15:39:29;;;;;;;26.65;18.52;;;;;;;5.80;77.92;99282.38;5553911;32;32392;-57
2021/12/09 15:42:31;;;;;;;26.40;18.65;;;;;;;5.44;74.63;99283.63;5562086;32;34339;-57
2021/12/09 15:45:33;;;;;;;31.75;18.70;;;;;;;5.68;80.03;99281.91;5564943;32;34116;-57
2021/12/09 15:48:42;;;;;;;26.02;18.37;;;;;;;5.79;82.30;99291.41;5559983;32;33739;-57
2021/12/09 15:51:47;;;;;;;26.40;18.60;;;;;;;5.63;86.05;99279.28;5562697;32;31789;-57
2021/12/09 15:54:54;;;;;;;27.35;18.40;;;;;;;5.45;84.16;99278.03;5561033;32;33744;-57
2021/12/09 15:58:06;;;;;;;28.70;18.02;;;;;;;5.59;80.59;99270.25;5560608;32;34293;-57
2021/12/09 16:01:11;;;;;;;25.65;18.10;;;;;;;5.93;86.01;99274.84;5552049;32;33911;-57
2021/12/09 16:04:13;;;;;;;25.37;17.85;;;;;;;6.15;91.25;99269.13;5558749;32;33696;-58
2021/12/09 16:07:17;;;;;;;27.10;18.08;;;;;;;6.22;82.88;99267.72;5549203;32;33763;-58
2021/12/09 16:10:20;;;;;;;26.17;18.92;;;;;;;6.43;84.98;99263.06;5567209;32;33659;-57
2021/12/09 16:13:23;;;;;;;28.10;18.05;;;;;;;5.96;71.86;99253.03;5559182;32;32427;-57
2021/12/09 16:16:28;;;;;;;27.10;18.55;;;;;;;5.71;73.32;99260.06;5566835;32;33741;-57
2021/12/09 16:19:40;;;;;;;29.12;17.23;;;;;;;5.58;83.12;99245.53;5559242;32;33641;-57
2021/12/09 16:22:43;;;;;;;25.00;17.83;;;;;;;5.63;74.00;99253.47;5552505;32;33699;-57
2021/12/09 16:25:47;;;;;;;26.27;18.10;;;;;;;5.63;87.13;99258.00;5551078;32;34427;-57
2021/12/09 16:28:49;;;;;;;26.33;16.80;;;;;;;5.88;80.36;99265.81;5554130;32;33637;-57
2021/12/09 16:31:54;;;;;;;27.15;17.92;;;;;;;5.70;81.11;99266.47;5553951;32;33866;-57
2021/12/09 16:34:56;;;;;;;26.60;17.50;;;;;;;5.61;81.09;99263.59;5555469;32;34364;-58
2021/12/09 16:37:59;;;;;;;26.20;18.15;;;;;;;6.23;89.75;99260.56;5560737;32;33513;-58
2021/12/09 16:41:03;;;;;;;26.52;17.70;;;;;;;6.06;74.99;99267.06;5558960;32;33865;-58
2021/12/09 16:44:06;;;;;;;25.05;18.02;;;;;;;5.94;76.77;99268.47;5554482;32;33634;-58
2021/12/09 16:47:11;;;;;;;27.52;18.73;;;;;;;6.17;78.10;99270.44;5556317;32;33874;-57
2021/12/09 16:50:15;;;;;;;27.77;19.05;;;;;;;6.04;75.76;99265.75;5560092;32;33748;-57
2021/12/09 16:53:25;;;;;;;26.67;17.95;;;;;;;5.95;84.41;99276.16;5561502;32;34419;-57
2021/12/09 16:56:40;;;;;;;25.88;17.75;;;;;;;5.64;74.36;99279.00;5565183;32;33613;-58
2021/12/09 16:59:42;;;;;;;27.45;18.23;;;;;;;5.51;87.06;99282.25;5562848;32;33644;-58
2021/12/09 17:02:46;;;;;;;29.42;19.02;;;;;;;5.42;78.44;99281.22;5548804;32;33677;-58
2021/12/09 17:05:48;;;;;;;27.37;18.80;;;;;;;5.30;75.34;99273.59;5554493;32;33678;-57
